Gunsan, South Korea

10:25 AM KST on January 24, 2017 (GMT +0900)
Kunsan Air Base | | Change Station

Elev 30 ft 35.90 °N, 126.62 °E | Updated 27 minutes ago

Clear
Clear
25 °F
Feels Like 18 °F
N
6
Wind Variable Wind from ESE

Today
High -- | Low -- °F
--% Chance of Precip.
Yesterday
High -- | Low -- °F
Precip. -- in
Pressure 30.59 in
Visibility 9.0 miles
Clouds Few 3000 ft
Windchill 18 °F
Dew Point 19 °F
Humidity 76%
Rainfall 0.00 in
Snow Depth Not available.
7:39 AM 5:51 PM
Waning Crescent, 15% visible
METAR RKJK 240058Z AUTO 12005KT 9SM FEW030 M04/M07 A3057 RMK AO2 SLP357 T10371074 $
Pressure 30.59 in
Visibility 9.0 miles
Clouds Few 3000 ft
Windchill 18 °F
Dew Point 19 °F
Humidity 76%
Rainfall 0.00 in
Snow Depth Not available.
7:39 AM 5:51 PM
Waning Crescent, 15% visible
METAR RKJK 240058Z AUTO 12005KT 9SM FEW030 M04/M07 A3057 RMK AO2 SLP357 T10371074 $

Get Your Daily Forecast Email!

Thanks for signing up!

Be on the lookout for a verification email in your inbox.

You'll start receiving the daily forecast at 8 AM.

×

10-Day Weather Forecast

No radar image for this location.
×

Almanac

Astronomy

Jan. 24, 2017 Rise Set
Actual Time
Civil Twilight
Nautical Twilight
Astronomical Twilight
Moon
Length of Visible Light
Length of Day
Tomorrow will be .
, % of the Moon is Illuminated

Today's Extremes

Country Highs Country Lows

Community

WunderPhotos

Upload Photos

1,962,540 photos uploaded!

WunderBlog® & News

Nearby

Air Quality

  Air Quality AQ Index Pollutant
Not available.

Snow Depth

Station Depth Elevation

Earthquake Activity

City Distance Mag. Time & Date
Minimum magnitude displayed is 2.5.

Coastal Water Temperatures

Place Temperature

Stations

Nearby Weather Stations

Station Location Temp. Windchill Dew Point Humidity Wind Precip. Elev Updated Type